sensor_id;sensor_type;location;lat;lon;timestamp;temperature;humidity
20349;DHT22;10332;50.208;18.988;2023-08-06T00:01:23;20.70;99.90
20349;DHT22;10332;50.208;18.988;2023-08-06T00:03:52;20.70;99.90
20349;DHT22;10332;50.208;18.988;2023-08-06T00:06:20;20.70;99.90
20349;DHT22;10332;50.208;18.988;2023-08-06T00:08:47;20.60;99.90
20349;DHT22;10332;50.208;18.988;2023-08-06T00:11:15;20.60;99.90
20349;DHT22;10332;50.208;18.988;2023-08-06T00:13:42;20.50;99.90
20349;DHT22;10332;50.208;18.988;2023-08-06T00:16:11;20.50;99.90
20349;DHT22;10332;50.208;18.988;2023-08-06T00:18:40;20.40;99.90
20349;DHT22;10332;50.208;18.988;2023-08-06T00:21:07;20.40;99.90
20349;DHT22;10332;50.208;18.988;2023-08-06T00:23:35;20.40;99.90
20349;DHT22;10332;50.208;18.988;2023-08-06T00:26:02;20.40;99.90
20349;DHT22;10332;50.208;18.988;2023-08-06T00:28:30;20.40;99.90
20349;DHT22;10332;50.208;18.988;2023-08-06T00:30:58;20.40;99.90
20349;DHT22;10332;50.208;18.988;2023-08-06T00:33:25;20.30;99.90
20349;DHT22;10332;50.208;18.988;2023-08-06T00:35:52;20.30;99.90
20349;DHT22;10332;50.208;18.988;2023-08-06T00:38:20;20.30;99.90
20349;DHT22;10332;50.208;18.988;2023-08-06T00:40:47;20.30;99.90
20349;DHT22;10332;50.208;18.988;2023-08-06T00:43:15;20.40;99.90
20349;DHT22;10332;50.208;18.988;2023-08-06T00:45:43;20.40;99.90
20349;DHT22;10332;50.208;18.988;2023-08-06T00:48:11;20.40;99.90
20349;DHT22;10332;50.208;18.988;2023-08-06T00:50:39;20.40;99.90
20349;DHT22;10332;50.208;18.988;2023-08-06T00:53:07;20.30;99.90
20349;DHT22;10332;50.208;18.988;2023-08-06T00:55:35;20.30;99.90
20349;DHT22;10332;50.208;18.988;2023-08-06T00:58:03;20.30;99.90
20349;DHT22;10332;50.208;18.988;2023-08-06T01:00:31;20.30;99.90
20349;DHT22;10332;50.208;18.988;2023-08-06T01:03:00;20.30;99.90
20349;DHT22;10332;50.208;18.988;2023-08-06T01:05:27;20.30;99.90
20349;DHT22;10332;50.208;18.988;2023-08-06T01:16:18;20.40;99.90
20349;DHT22;10332;50.208;18.988;2023-08-06T01:18:48;20.30;99.90
20349;DHT22;10332;50.208;18.988;2023-08-06T01:21:19;20.30;99.90
20349;DHT22;10332;50.208;18.988;2023-08-06T01:23:47;20.30;99.90
20349;DHT22;10332;50.208;18.988;2023-08-06T01:26:26;20.30;99.90
20349;DHT22;10332;50.208;18.988;2023-08-06T01:29:19;20.30;99.90
20349;DHT22;10332;50.208;18.988;2023-08-06T01:31:54;20.30;99.90
20349;DHT22;10332;50.208;18.988;2023-08-06T01:34:26;20.30;99.90
20349;DHT22;10332;50.208;18.988;2023-08-06T01:36:57;20.30;99.90
20349;DHT22;10332;50.208;18.988;2023-08-06T01:39:27;20.30;99.90
20349;DHT22;10332;50.208;18.988;2023-08-06T01:41:54;20.30;99.90
20349;DHT22;10332;50.208;18.988;2023-08-06T01:44:22;20.30;99.90
20349;DHT22;10332;50.208;18.988;2023-08-06T01:46:49;20.20;99.90
20349;DHT22;10332;50.208;18.988;2023-08-06T01:49:17;20.20;99.90
20349;DHT22;10332;50.208;18.988;2023-08-06T01:51:44;20.20;99.90
20349;DHT22;10332;50.208;18.988;2023-08-06T01:54:11;20.20;99.90
20349;DHT22;10332;50.208;18.988;2023-08-06T01:56:39;20.20;99.90
20349;DHT22;10332;50.208;18.988;2023-08-06T01:59:06;20.20;99.90
20349;DHT22;10332;50.208;18.988;2023-08-06T02:01:34;20.30;99.90
20349;DHT22;10332;50.208;18.988;2023-08-06T02:04:01;20.20;99.90
20349;DHT22;10332;50.208;18.988;2023-08-06T02:06:29;20.20;99.90
20349;DHT22;10332;50.208;18.988;2023-08-06T02:08:56;20.20;99.90
20349;DHT22;10332;50.208;18.988;2023-08-06T02:11:24;20.20;99.90
20349;DHT22;10332;50.208;18.988;2023-08-06T02:13:51;20.20;99.90
20349;DHT22;10332;50.208;18.988;2023-08-06T02:16:18;20.20;99.90
20349;DHT22;10332;50.208;18.988;2023-08-06T02:18:46;20.20;99.90
20349;DHT22;10332;50.208;18.988;2023-08-06T02:21:13;20.20;99.90
20349;DHT22;10332;50.208;18.988;2023-08-06T02:23:41;20.20;99.90
20349;DHT22;10332;50.208;18.988;2023-08-06T02:26:08;20.20;99.90
20349;DHT22;10332;50.208;18.988;2023-08-06T02:28:36;20.20;99.90
20349;DHT22;10332;50.208;18.988;2023-08-06T02:31:03;20.20;99.90
20349;DHT22;10332;50.208;18.988;2023-08-06T02:33:31;20.20;99.90
20349;DHT22;10332;50.208;18.988;2023-08-06T02:36:00;20.30;99.90
20349;DHT22;10332;50.208;18.988;2023-08-06T02:38:32;20.30;99.90
20349;DHT22;10332;50.208;18.988;2023-08-06T02:41:02;20.20;99.90
20349;DHT22;10332;50.208;18.988;2023-08-06T02:43:31;20.30;99.90
20349;DHT22;10332;50.208;18.988;2023-08-06T02:45:59;20.30;99.90
20349;DHT22;10332;50.208;18.988;2023-08-06T02:48:28;20.30;99.90
20349;DHT22;10332;50.208;18.988;2023-08-06T02:50:59;20.30;99.90
20349;DHT22;10332;50.208;18.988;2023-08-06T02:53:27;20.30;99.90
20349;DHT22;10332;50.208;18.988;2023-08-06T02:55:54;20.30;99.90
20349;DHT22;10332;50.208;18.988;2023-08-06T02:58:23;20.30;99.90
20349;DHT22;10332;50.208;18.988;2023-08-06T03:01:04;20.30;99.90
20349;DHT22;10332;50.208;18.988;2023-08-06T03:03:34;20.30;99.90
20349;DHT22;10332;50.208;18.988;2023-08-06T03:06:02;20.30;99.90
20349;DHT22;10332;50.208;18.988;2023-08-06T03:08:29;20.30;99.90
20349;DHT22;10332;50.208;18.988;2023-08-06T03:10:57;20.20;99.90
20349;DHT22;10332;50.208;18.988;2023-08-06T03:13:24;20.30;99.90
20349;DHT22;10332;50.208;18.988;2023-08-06T03:15:56;20.30;99.90
20349;DHT22;10332;50.208;18.988;2023-08-06T03:18:25;20.30;99.90
20349;DHT22;10332;50.208;18.988;2023-08-06T03:20:53;20.30;99.90
20349;DHT22;10332;50.208;18.988;2023-08-06T03:23:21;20.30;99.90
20349;DHT22;10332;50.208;18.988;2023-08-06T03:25:49;20.30;99.90
20349;DHT22;10332;50.208;18.988;2023-08-06T03:28:16;20.30;99.90
20349;DHT22;10332;50.208;18.988;2023-08-06T03:30:44;20.30;99.90
20349;DHT22;10332;50.208;18.988;2023-08-06T03:33:11;20.30;99.90
20349;DHT22;10332;50.208;18.988;2023-08-06T03:35:39;20.30;99.90
20349;DHT22;10332;50.208;18.988;2023-08-06T03:38:07;20.30;99.90
20349;DHT22;10332;50.208;18.988;2023-08-06T03:40:35;20.30;99.90
20349;DHT22;10332;50.208;18.988;2023-08-06T03:43:03;20.30;99.90
20349;DHT22;10332;50.208;18.988;2023-08-06T03:45:30;20.30;99.90
20349;DHT22;10332;50.208;18.988;2023-08-06T03:47:59;20.30;99.90
20349;DHT22;10332;50.208;18.988;2023-08-06T03:50:26;20.30;99.90
20349;DHT22;10332;50.208;18.988;2023-08-06T03:52:54;20.30;99.90
20349;DHT22;10332;50.208;18.988;2023-08-06T03:55:21;20.30;99.90
20349;DHT22;10332;50.208;18.988;2023-08-06T03:57:49;20.30;99.90
20349;DHT22;10332;50.208;18.988;2023-08-06T04:00:16;20.30;99.90
20349;DHT22;10332;50.208;18.988;2023-08-06T04:02:44;20.30;99.90
20349;DHT22;10332;50.208;18.988;2023-08-06T04:05:12;20.20;99.90
20349;DHT22;10332;50.208;18.988;2023-08-06T04:07:40;20.20;99.90
20349;DHT22;10332;50.208;18.988;2023-08-06T04:10:07;20.20;99.90
20349;DHT22;10332;50.208;18.988;2023-08-06T04:12:35;20.10;99.90
20349;DHT22;10332;50.208;18.988;2023-08-06T04:15:05;20.00;99.90
20349;DHT22;10332;50.208;18.988;2023-08-06T04:17:33;20.00;99.90
20349;DHT22;10332;50.208;18.988;2023-08-06T04:20:00;20.00;99.90
20349;DHT22;10332;50.208;18.988;2023-08-06T04:22:29;19.90;99.90
20349;DHT22;10332;50.208;18.988;2023-08-06T04:24:56;19.90;99.90
20349;DHT22;10332;50.208;18.988;2023-08-06T04:27:25;19.80;99.90
20349;DHT22;10332;50.208;18.988;2023-08-06T04:29:52;19.80;99.90
20349;DHT22;10332;50.208;18.988;2023-08-06T04:32:20;19.80;99.90
20349;DHT22;10332;50.208;18.988;2023-08-06T04:34:48;19.80;99.90
20349;DHT22;10332;50.208;18.988;2023-08-06T04:37:15;19.70;99.90
20349;DHT22;10332;50.208;18.988;2023-08-06T04:39:42;19.80;99.90
20349;DHT22;10332;50.208;18.988;2023-08-06T04:42:10;19.70;99.90
20349;DHT22;10332;50.208;18.988;2023-08-06T04:44:37;19.80;99.90
20349;DHT22;10332;50.208;18.988;2023-08-06T04:47:05;19.80;99.90
20349;DHT22;10332;50.208;18.988;2023-08-06T04:49:32;19.80;99.90
20349;DHT22;10332;50.208;18.988;2023-08-06T04:52:00;19.90;99.90
20349;DHT22;10332;50.208;18.988;2023-08-06T04:54:27;19.90;99.90
20349;DHT22;10332;50.208;18.988;2023-08-06T04:56:55;19.90;99.90
20349;DHT22;10332;50.208;18.988;2023-08-06T04:59:22;19.90;99.90
20349;DHT22;10332;50.208;18.988;2023-08-06T05:01:50;19.90;99.90
20349;DHT22;10332;50.208;18.988;2023-08-06T05:04:18;19.90;99.90
20349;DHT22;10332;50.208;18.988;2023-08-06T05:06:45;19.90;99.90
20349;DHT22;10332;50.208;18.988;2023-08-06T05:09:13;19.90;99.90
20349;DHT22;10332;50.208;18.988;2023-08-06T05:11:40;19.90;99.90
20349;DHT22;10332;50.208;18.988;2023-08-06T05:14:07;19.90;99.90
20349;DHT22;10332;50.208;18.988;2023-08-06T05:16:35;19.90;99.90
20349;DHT22;10332;50.208;18.988;2023-08-06T05:19:02;19.90;99.90
20349;DHT22;10332;50.208;18.988;2023-08-06T05:21:30;19.80;99.90
20349;DHT22;10332;50.208;18.988;2023-08-06T05:23:57;19.70;99.90
20349;DHT22;10332;50.208;18.988;2023-08-06T05:26:25;19.70;99.90
20349;DHT22;10332;50.208;18.988;2023-08-06T05:28:52;19.70;99.90
20349;DHT22;10332;50.208;18.988;2023-08-06T05:31:20;19.60;99.90
20349;DHT22;10332;50.208;18.988;2023-08-06T05:33:47;19.50;99.90
20349;DHT22;10332;50.208;18.988;2023-08-06T05:36:15;19.40;99.90
20349;DHT22;10332;50.208;18.988;2023-08-06T05:38:44;19.30;99.90
20349;DHT22;10332;50.208;18.988;2023-08-06T05:41:12;19.10;99.90
20349;DHT22;10332;50.208;18.988;2023-08-06T05:43:39;19.00;99.90
20349;DHT22;10332;50.208;18.988;2023-08-06T05:46:07;18.90;99.90
20349;DHT22;10332;50.208;18.988;2023-08-06T05:48:34;18.80;99.90
20349;DHT22;10332;50.208;18.988;2023-08-06T05:51:02;18.70;99.90
20349;DHT22;10332;50.208;18.988;2023-08-06T05:53:30;18.70;99.90
20349;DHT22;10332;50.208;18.988;2023-08-06T05:55:57;18.60;99.90
20349;DHT22;10332;50.208;18.988;2023-08-06T05:58:25;18.60;99.90
20349;DHT22;10332;50.208;18.988;2023-08-06T06:00:56;18.60;99.90
20349;DHT22;10332;50.208;18.988;2023-08-06T06:03:23;18.50;99.90
20349;DHT22;10332;50.208;18.988;2023-08-06T06:05:51;18.40;99.90
20349;DHT22;10332;50.208;18.988;2023-08-06T06:08:18;18.40;99.90
20349;DHT22;10332;50.208;18.988;2023-08-06T06:10:46;18.40;99.90
20349;DHT22;10332;50.208;18.988;2023-08-06T06:13:14;18.50;99.90
20349;DHT22;10332;50.208;18.988;2023-08-06T06:15:41;18.40;99.90
20349;DHT22;10332;50.208;18.988;2023-08-06T06:18:08;18.40;99.90
20349;DHT22;10332;50.208;18.988;2023-08-06T06:20:36;18.50;99.90
20349;DHT22;10332;50.208;18.988;2023-08-06T06:23:03;18.50;99.90
20349;DHT22;10332;50.208;18.988;2023-08-06T06:25:31;18.40;99.90
20349;DHT22;10332;50.208;18.988;2023-08-06T06:27:58;18.40;99.90
20349;DHT22;10332;50.208;18.988;2023-08-06T06:30:26;18.40;99.90
20349;DHT22;10332;50.208;18.988;2023-08-06T06:32:53;18.40;99.90
20349;DHT22;10332;50.208;18.988;2023-08-06T06:35:21;18.40;99.90
20349;DHT22;10332;50.208;18.988;2023-08-06T06:37:48;18.40;99.90
20349;DHT22;10332;50.208;18.988;2023-08-06T06:40:16;18.40;99.90
20349;DHT22;10332;50.208;18.988;2023-08-06T06:42:44;18.40;99.90
20349;DHT22;10332;50.208;18.988;2023-08-06T06:45:11;18.30;99.90
20349;DHT22;10332;50.208;18.988;2023-08-06T06:47:39;18.40;99.90
20349;DHT22;10332;50.208;18.988;2023-08-06T06:50:07;18.30;99.90
20349;DHT22;10332;50.208;18.988;2023-08-06T06:52:35;18.20;99.90
20349;DHT22;10332;50.208;18.988;2023-08-06T06:55:02;18.00;99.90
20349;DHT22;10332;50.208;18.988;2023-08-06T06:57:30;18.00;99.90
20349;DHT22;10332;50.208;18.988;2023-08-06T06:59:57;17.90;99.90
20349;DHT22;10332;50.208;18.988;2023-08-06T07:02:24;17.70;99.90
20349;DHT22;10332;50.208;18.988;2023-08-06T07:04:52;17.60;99.90
20349;DHT22;10332;50.208;18.988;2023-08-06T07:07:20;17.60;99.90
20349;DHT22;10332;50.208;18.988;2023-08-06T07:09:47;17.40;99.90
20349;DHT22;10332;50.208;18.988;2023-08-06T07:12:15;17.40;99.90
20349;DHT22;10332;50.208;18.988;2023-08-06T07:14:42;17.40;99.90
20349;DHT22;10332;50.208;18.988;2023-08-06T07:17:10;17.40;99.90
20349;DHT22;10332;50.208;18.988;2023-08-06T07:19:37;17.40;99.90
20349;DHT22;10332;50.208;18.988;2023-08-06T07:22:04;17.40;99.90
20349;DHT22;10332;50.208;18.988;2023-08-06T07:24:32;17.30;99.90
20349;DHT22;10332;50.208;18.988;2023-08-06T07:27:00;17.30;99.90
20349;DHT22;10332;50.208;18.988;2023-08-06T07:29:28;17.20;99.90
20349;DHT22;10332;50.208;18.988;2023-08-06T07:31:55;17.20;99.90
20349;DHT22;10332;50.208;18.988;2023-08-06T07:34:23;17.10;99.90
20349;DHT22;10332;50.208;18.988;2023-08-06T07:36:50;17.10;99.90
20349;DHT22;10332;50.208;18.988;2023-08-06T07:39:18;17.00;99.90
20349;DHT22;10332;50.208;18.988;2023-08-06T07:41:45;16.90;99.90
20349;DHT22;10332;50.208;18.988;2023-08-06T07:44:12;16.80;99.90
20349;DHT22;10332;50.208;18.988;2023-08-06T07:46:40;16.80;99.90
20349;DHT22;10332;50.208;18.988;2023-08-06T07:49:09;16.80;99.90
20349;DHT22;10332;50.208;18.988;2023-08-06T07:51:38;16.80;99.90
20349;DHT22;10332;50.208;18.988;2023-08-06T07:54:06;16.80;99.90
20349;DHT22;10332;50.208;18.988;2023-08-06T07:56:33;16.90;99.90
20349;DHT22;10332;50.208;18.988;2023-08-06T07:59:02;16.80;99.90
20349;DHT22;10332;50.208;18.988;2023-08-06T08:01:30;16.80;99.90
20349;DHT22;10332;50.208;18.988;2023-08-06T08:03:57;16.80;99.90
20349;DHT22;10332;50.208;18.988;2023-08-06T08:06:25;16.90;99.90
20349;DHT22;10332;50.208;18.988;2023-08-06T08:08:52;16.90;99.90
20349;DHT22;10332;50.208;18.988;2023-08-06T08:11:20;16.90;99.90
20349;DHT22;10332;50.208;18.988;2023-08-06T08:13:47;17.00;99.90
20349;DHT22;10332;50.208;18.988;2023-08-06T08:16:15;17.10;99.90
20349;DHT22;10332;50.208;18.988;2023-08-06T08:18:42;17.10;99.90
20349;DHT22;10332;50.208;18.988;2023-08-06T08:21:10;17.30;99.90
20349;DHT22;10332;50.208;18.988;2023-08-06T08:23:37;17.40;99.90
20349;DHT22;10332;50.208;18.988;2023-08-06T08:26:06;17.50;99.90
20349;DHT22;10332;50.208;18.988;2023-08-06T08:28:33;17.40;99.90
20349;DHT22;10332;50.208;18.988;2023-08-06T08:31:01;17.40;99.90
20349;DHT22;10332;50.208;18.988;2023-08-06T08:33:29;17.40;99.90
20349;DHT22;10332;50.208;18.988;2023-08-06T08:35:57;17.50;99.90
20349;DHT22;10332;50.208;18.988;2023-08-06T08:38:25;17.50;99.90
20349;DHT22;10332;50.208;18.988;2023-08-06T08:40:54;17.50;99.90
20349;DHT22;10332;50.208;18.988;2023-08-06T08:43:22;17.50;99.90
20349;DHT22;10332;50.208;18.988;2023-08-06T08:45:51;17.40;99.90
20349;DHT22;10332;50.208;18.988;2023-08-06T08:48:22;17.40;99.90
20349;DHT22;10332;50.208;18.988;2023-08-06T08:50:51;17.40;99.90
20349;DHT22;10332;50.208;18.988;2023-08-06T08:53:19;17.50;99.90
20349;DHT22;10332;50.208;18.988;2023-08-06T08:55:49;17.50;99.90
20349;DHT22;10332;50.208;18.988;2023-08-06T08:58:16;17.60;99.90
20349;DHT22;10332;50.208;18.988;2023-08-06T09:00:47;17.60;99.90
20349;DHT22;10332;50.208;18.988;2023-08-06T09:03:16;17.70;99.90
20349;DHT22;10332;50.208;18.988;2023-08-06T09:05:48;17.70;99.90
20349;DHT22;10332;50.208;18.988;2023-08-06T09:08:21;17.70;99.90
20349;DHT22;10332;50.208;18.988;2023-08-06T09:10:54;17.70;99.90
20349;DHT22;10332;50.208;18.988;2023-08-06T09:13:23;17.70;99.90
20349;DHT22;10332;50.208;18.988;2023-08-06T09:15:51;17.60;99.90
20349;DHT22;10332;50.208;18.988;2023-08-06T09:18:25;17.60;99.90
20349;DHT22;10332;50.208;18.988;2023-08-06T09:20:57;17.60;99.90
20349;DHT22;10332;50.208;18.988;2023-08-06T09:23:30;17.50;99.90
20349;DHT22;10332;50.208;18.988;2023-08-06T09:25:59;17.50;99.90
20349;DHT22;10332;50.208;18.988;2023-08-06T09:28:39;17.50;99.90
20349;DHT22;10332;50.208;18.988;2023-08-06T09:31:09;17.60;99.90
20349;DHT22;10332;50.208;18.988;2023-08-06T09:33:37;17.60;99.90
20349;DHT22;10332;50.208;18.988;2023-08-06T09:36:10;17.70;99.90
20349;DHT22;10332;50.208;18.988;2023-08-06T09:38:39;17.70;99.90
20349;DHT22;10332;50.208;18.988;2023-08-06T09:41:07;17.70;99.90
20349;DHT22;10332;50.208;18.988;2023-08-06T09:43:42;17.80;99.90
20349;DHT22;10332;50.208;18.988;2023-08-06T09:46:14;17.70;99.90
20349;DHT22;10332;50.208;18.988;2023-08-06T09:48:47;17.70;99.90
20349;DHT22;10332;50.208;18.988;2023-08-06T09:51:15;17.70;99.90
20349;DHT22;10332;50.208;18.988;2023-08-06T09:53:44;17.70;99.90
20349;DHT22;10332;50.208;18.988;2023-08-06T09:56:13;17.70;99.90
20349;DHT22;10332;50.208;18.988;2023-08-06T09:58:44;17.60;99.90
20349;DHT22;10332;50.208;18.988;2023-08-06T10:01:15;17.60;99.90
20349;DHT22;10332;50.208;18.988;2023-08-06T10:03:45;17.50;99.90
20349;DHT22;10332;50.208;18.988;2023-08-06T10:06:14;17.50;99.90
20349;DHT22;10332;50.208;18.988;2023-08-06T10:08:42;17.40;99.90
20349;DHT22;10332;50.208;18.988;2023-08-06T10:11:09;17.40;99.90
20349;DHT22;10332;50.208;18.988;2023-08-06T10:13:38;17.30;99.90
20349;DHT22;10332;50.208;18.988;2023-08-06T10:16:07;17.30;99.90
20349;DHT22;10332;50.208;18.988;2023-08-06T10:18:37;17.30;99.90
20349;DHT22;10332;50.208;18.988;2023-08-06T10:21:08;17.30;99.90
20349;DHT22;10332;50.208;18.988;2023-08-06T10:23:37;17.30;99.90
20349;DHT22;10332;50.208;18.988;2023-08-06T10:26:08;17.30;99.90
20349;DHT22;10332;50.208;18.988;2023-08-06T10:28:39;17.30;99.90
20349;DHT22;10332;50.208;18.988;2023-08-06T10:31:07;17.30;99.90
20349;DHT22;10332;50.208;18.988;2023-08-06T10:33:45;17.30;99.90
20349;DHT22;10332;50.208;18.988;2023-08-06T10:36:14;17.20;99.90
20349;DHT22;10332;50.208;18.988;2023-08-06T10:38:47;17.20;99.90
20349;DHT22;10332;50.208;18.988;2023-08-06T10:41:23;17.20;99.90
20349;DHT22;10332;50.208;18.988;2023-08-06T10:44:09;17.20;99.90
20349;DHT22;10332;50.208;18.988;2023-08-06T10:46:38;17.20;99.90
20349;DHT22;10332;50.208;18.988;2023-08-06T10:49:06;17.20;99.90
20349;DHT22;10332;50.208;18.988;2023-08-06T10:51:35;17.10;99.90
20349;DHT22;10332;50.208;18.988;2023-08-06T10:54:04;17.10;99.90
20349;DHT22;10332;50.208;18.988;2023-08-06T10:56:39;17.10;99.90
20349;DHT22;10332;50.208;18.988;2023-08-06T10:59:09;17.10;99.90
20349;DHT22;10332;50.208;18.988;2023-08-06T11:01:38;17.10;99.90
20349;DHT22;10332;50.208;18.988;2023-08-06T11:04:06;17.10;99.90
20349;DHT22;10332;50.208;18.988;2023-08-06T11:06:33;17.10;99.90
20349;DHT22;10332;50.208;18.988;2023-08-06T11:09:01;17.10;99.90
20349;DHT22;10332;50.208;18.988;2023-08-06T11:11:29;17.00;99.90
20349;DHT22;10332;50.208;18.988;2023-08-06T11:13:56;17.00;99.90
20349;DHT22;10332;50.208;18.988;2023-08-06T11:16:24;17.00;99.90
20349;DHT22;10332;50.208;18.988;2023-08-06T11:18:52;17.00;99.90
20349;DHT22;10332;50.208;18.988;2023-08-06T11:21:21;17.00;99.90
20349;DHT22;10332;50.208;18.988;2023-08-06T11:23:50;17.00;99.90
20349;DHT22;10332;50.208;18.988;2023-08-06T11:26:20;16.90;99.90
20349;DHT22;10332;50.208;18.988;2023-08-06T11:28:48;16.90;99.90
20349;DHT22;10332;50.208;18.988;2023-08-06T11:31:20;16.90;99.90
20349;DHT22;10332;50.208;18.988;2023-08-06T11:33:51;17.00;99.90
20349;DHT22;10332;50.208;18.988;2023-08-06T11:36:39;17.00;99.90
20349;DHT22;10332;50.208;18.988;2023-08-06T11:39:08;17.10;99.90
20349;DHT22;10332;50.208;18.988;2023-08-06T11:41:38;17.20;99.90
20349;DHT22;10332;50.208;18.988;2023-08-06T11:44:06;17.20;99.90
20349;DHT22;10332;50.208;18.988;2023-08-06T11:46:54;17.10;99.90
20349;DHT22;10332;50.208;18.988;2023-08-06T11:49:43;17.10;99.90
20349;DHT22;10332;50.208;18.988;2023-08-06T11:52:21;17.10;99.90
20349;DHT22;10332;50.208;18.988;2023-08-06T11:55:07;17.10;99.90
20349;DHT22;10332;50.208;18.988;2023-08-06T11:57:39;17.10;99.90
20349;DHT22;10332;50.208;18.988;2023-08-06T12:00:12;17.10;99.90
20349;DHT22;10332;50.208;18.988;2023-08-06T12:02:42;17.20;99.90
20349;DHT22;10332;50.208;18.988;2023-08-06T12:05:16;17.20;99.90
20349;DHT22;10332;50.208;18.988;2023-08-06T12:07:51;17.30;99.90
20349;DHT22;10332;50.208;18.988;2023-08-06T12:10:20;17.40;99.90
20349;DHT22;10332;50.208;18.988;2023-08-06T12:12:49;17.40;99.90
20349;DHT22;10332;50.208;18.988;2023-08-06T12:15:19;17.30;99.90
20349;DHT22;10332;50.208;18.988;2023-08-06T12:17:47;17.30;99.90
20349;DHT22;10332;50.208;18.988;2023-08-06T12:20:15;17.30;99.90
20349;DHT22;10332;50.208;18.988;2023-08-06T12:22:43;17.30;99.90
20349;DHT22;10332;50.208;18.988;2023-08-06T12:25:11;17.30;99.90
20349;DHT22;10332;50.208;18.988;2023-08-06T12:27:43;17.40;99.90
20349;DHT22;10332;50.208;18.988;2023-08-06T12:30:12;17.50;99.90
20349;DHT22;10332;50.208;18.988;2023-08-06T12:32:40;17.60;99.90
20349;DHT22;10332;50.208;18.988;2023-08-06T12:35:08;17.50;99.90
20349;DHT22;10332;50.208;18.988;2023-08-06T12:37:36;17.50;99.90
20349;DHT22;10332;50.208;18.988;2023-08-06T12:40:06;17.50;99.90
20349;DHT22;10332;50.208;18.988;2023-08-06T12:42:54;17.50;99.90
20349;DHT22;10332;50.208;18.988;2023-08-06T12:45:22;17.50;99.90
20349;DHT22;10332;50.208;18.988;2023-08-06T12:47:49;17.50;99.90
20349;DHT22;10332;50.208;18.988;2023-08-06T12:50:17;17.50;99.90
20349;DHT22;10332;50.208;18.988;2023-08-06T12:52:45;17.40;99.90
20349;DHT22;10332;50.208;18.988;2023-08-06T12:55:12;17.30;99.90
20349;DHT22;10332;50.208;18.988;2023-08-06T12:57:40;17.30;99.90
20349;DHT22;10332;50.208;18.988;2023-08-06T13:00:10;17.40;99.90
20349;DHT22;10332;50.208;18.988;2023-08-06T13:02:38;17.50;99.90
20349;DHT22;10332;50.208;18.988;2023-08-06T13:05:06;17.60;99.90
20349;DHT22;10332;50.208;18.988;2023-08-06T13:07:34;17.80;99.90
20349;DHT22;10332;50.208;18.988;2023-08-06T13:10:01;17.90;99.90
20349;DHT22;10332;50.208;18.988;2023-08-06T13:12:29;17.90;99.90
20349;DHT22;10332;50.208;18.988;2023-08-06T13:14:56;17.80;99.90
20349;DHT22;10332;50.208;18.988;2023-08-06T13:17:26;17.80;99.90
20349;DHT22;10332;50.208;18.988;2023-08-06T13:19:54;18.00;99.90
20349;DHT22;10332;50.208;18.988;2023-08-06T13:22:21;18.10;99.90
20349;DHT22;10332;50.208;18.988;2023-08-06T13:24:49;18.30;99.90
20349;DHT22;10332;50.208;18.988;2023-08-06T13:27:16;18.30;99.90
20349;DHT22;10332;50.208;18.988;2023-08-06T13:29:44;18.30;99.90
20349;DHT22;10332;50.208;18.988;2023-08-06T13:32:11;18.20;99.90
20349;DHT22;10332;50.208;18.988;2023-08-06T13:34:39;18.20;99.90
20349;DHT22;10332;50.208;18.988;2023-08-06T13:37:06;18.10;99.90
20349;DHT22;10332;50.208;18.988;2023-08-06T13:39:34;18.00;99.90
20349;DHT22;10332;50.208;18.988;2023-08-06T13:42:01;18.00;99.90
20349;DHT22;10332;50.208;18.988;2023-08-06T13:44:29;18.10;99.90
20349;DHT22;10332;50.208;18.988;2023-08-06T13:46:57;17.90;99.90
20349;DHT22;10332;50.208;18.988;2023-08-06T13:49:24;17.90;99.90
20349;DHT22;10332;50.208;18.988;2023-08-06T13:51:51;17.90;99.90
20349;DHT22;10332;50.208;18.988;2023-08-06T13:54:20;18.00;99.90
20349;DHT22;10332;50.208;18.988;2023-08-06T13:56:48;18.10;99.90
20349;DHT22;10332;50.208;18.988;2023-08-06T13:59:16;18.10;99.90
20349;DHT22;10332;50.208;18.988;2023-08-06T14:01:46;18.00;99.90
20349;DHT22;10332;50.208;18.988;2023-08-06T14:04:19;17.90;99.90
20349;DHT22;10332;50.208;18.988;2023-08-06T14:06:48;17.70;99.90
20349;DHT22;10332;50.208;18.988;2023-08-06T14:09:15;17.60;99.90
20349;DHT22;10332;50.208;18.988;2023-08-06T14:11:46;17.70;99.90
20349;DHT22;10332;50.208;18.988;2023-08-06T14:14:13;17.60;99.90
20349;DHT22;10332;50.208;18.988;2023-08-06T14:16:41;17.50;99.90
20349;DHT22;10332;50.208;18.988;2023-08-06T14:19:08;17.50;99.90
20349;DHT22;10332;50.208;18.988;2023-08-06T14:21:36;17.50;99.90
20349;DHT22;10332;50.208;18.988;2023-08-06T14:24:03;17.60;99.90
20349;DHT22;10332;50.208;18.988;2023-08-06T14:26:31;17.50;99.90
20349;DHT22;10332;50.208;18.988;2023-08-06T14:28:58;17.40;99.90
20349;DHT22;10332;50.208;18.988;2023-08-06T14:31:26;17.50;99.90
20349;DHT22;10332;50.208;18.988;2023-08-06T14:33:53;17.50;99.90
20349;DHT22;10332;50.208;18.988;2023-08-06T14:36:21;17.40;99.90
20349;DHT22;10332;50.208;18.988;2023-08-06T14:38:48;17.40;99.90
20349;DHT22;10332;50.208;18.988;2023-08-06T14:41:26;17.40;99.90
20349;DHT22;10332;50.208;18.988;2023-08-06T14:43:54;17.40;99.90
20349;DHT22;10332;50.208;18.988;2023-08-06T14:46:21;17.30;99.90
20349;DHT22;10332;50.208;18.988;2023-08-06T14:48:49;17.20;99.90
20349;DHT22;10332;50.208;18.988;2023-08-06T14:51:17;17.10;99.90
20349;DHT22;10332;50.208;18.988;2023-08-06T14:53:47;17.10;99.90
20349;DHT22;10332;50.208;18.988;2023-08-06T14:56:15;17.10;99.90
20349;DHT22;10332;50.208;18.988;2023-08-06T14:58:42;17.20;99.90
20349;DHT22;10332;50.208;18.988;2023-08-06T15:01:10;17.30;99.90
20349;DHT22;10332;50.208;18.988;2023-08-06T15:03:37;17.30;99.90
20349;DHT22;10332;50.208;18.988;2023-08-06T15:06:05;17.30;99.90
20349;DHT22;10332;50.208;18.988;2023-08-06T15:08:32;17.30;99.90
20349;DHT22;10332;50.208;18.988;2023-08-06T15:11:00;17.20;99.90
20349;DHT22;10332;50.208;18.988;2023-08-06T15:13:30;17.20;99.90
20349;DHT22;10332;50.208;18.988;2023-08-06T15:15:57;17.10;99.90
20349;DHT22;10332;50.208;18.988;2023-08-06T15:18:25;17.00;99.90
20349;DHT22;10332;50.208;18.988;2023-08-06T15:20:52;16.90;99.90
20349;DHT22;10332;50.208;18.988;2023-08-06T15:23:20;16.80;99.90
20349;DHT22;10332;50.208;18.988;2023-08-06T15:25:48;16.80;99.90
20349;DHT22;10332;50.208;18.988;2023-08-06T15:28:16;16.90;99.90
20349;DHT22;10332;50.208;18.988;2023-08-06T15:30:50;16.90;99.90
20349;DHT22;10332;50.208;18.988;2023-08-06T15:33:19;16.90;99.90